Overview Statistics Trail Chart Weather Telemetry Raw packets
 

This is the latest recevied weather packets stored in our database for station/object MB7UKB-10. If no packets are shown the sender has not sent any weather packets the latest 10 day(s).

<< 9 10 11 12 13 14 15 >>
Time Temp. Humidity Pressure Rain* Wind** Luminosity Snow
1788191137 22.22° C 52% 1014.4 hPa 0 mm - - -
1788189326 23.33° C 51% 1014.3 hPa 0 mm - - -
1788187527 23.33° C 48% 1014 hPa 0 mm - - -
1788185727 22.22° C 52% 1013.6 hPa 0 mm - - -
1788183926 23.33° C 49% 1013.3 hPa 0 mm - - -
1788182127 22.78° C 49% 1013.1 hPa 0 mm - - -
1788180326 22.22° C 54% 1012.9 hPa 0 mm - - -
1788178526 21.67° C 60% 1012.4 hPa 0 mm - - -
1788176726 21.67° C 60% 1012.2 hPa 0 mm - - -
1788174926 20.56° C 63% 1011.8 hPa 0 mm - - -
1788173127 19.44° C 66% 1011.4 hPa 0 mm - - -
1788171326 18.89° C 68% 1011 hPa 0 mm - - -
1788169526 18.89° C 70% 1010.4 hPa 0 mm - - -
1788167726 18.33° C 74% 1010.1 hPa 0 mm - - -
1788165927 17.78° C 78% 1009.9 hPa 0 mm - - -
1788164127 16.67° C 82% 1009.4 hPa 0 mm - - -
1788162327 16.11° C 84% 1008.9 hPa 0 mm - - -
1788160527 15.56° C 84% 1008.5 hPa 0 mm - - -
1788158727 15° C 84% 1008.1 hPa 0 mm - - -
1788156928 13.89° C 88% 1007.5 hPa 0 mm - - -
1788151527 13.33° C 90% 1006.4 hPa 0 mm - - -
1788149727 13.33° C 89% 1006 hPa 0 mm - - -
1788147927 13.89° C 89% 1006 hPa 0 mm - - -
1788146127 13.89° C 88% 1005.8 hPa 0 mm - - -
1788142527 15° C 86% 1005.3 hPa 0 mm - - -

* Rain latest hour (hover to see other rain measurements)
** Current wind speed in m/s (hover to see current wind gust speed)